createdAt,value
2022-11-28T00:00:22.672Z,92.78
2022-11-28T00:04:24.059Z,92.50
2022-11-28T00:08:26.894Z,91.58
2022-11-28T00:12:28.268Z,92.51
2022-11-28T00:16:29.748Z,91.88
2022-11-28T00:20:31.306Z,92.74
2022-11-28T00:24:34.040Z,93.51
2022-11-28T00:28:35.453Z,92.88
2022-11-28T00:32:36.858Z,93.02
2022-11-28T00:36:38.228Z,92.98
2022-11-28T00:40:41.020Z,93.80
2022-11-28T00:44:42.485Z,93.55
2022-11-28T00:48:45.063Z,94.16
2022-11-28T00:52:46.419Z,94.16
2022-11-28T00:56:49.137Z,93.78
2022-11-28T01:00:50.581Z,94.01
2022-11-28T01:04:52.001Z,94.08
2022-11-28T01:08:53.776Z,94.65
2022-11-28T01:12:56.520Z,93.92
2022-11-28T01:16:57.854Z,94.28
2022-11-28T01:20:59.332Z,93.77
2022-11-28T01:25:00.703Z,93.46
2022-11-28T01:29:03.431Z,93.51
2022-11-28T01:33:04.780Z,94.03
2022-11-28T01:37:06.181Z,94.24
2022-11-28T01:41:08.013Z,93.45
2022-11-28T01:45:16.131Z,93.19
2022-11-28T01:49:20.407Z,93.07
2022-11-28T01:53:22.156Z,93.50
2022-11-28T01:57:25.198Z,93.53
2022-11-28T02:01:28.387Z,93.03
2022-11-28T02:05:29.875Z,93.07
2022-11-28T02:09:31.216Z,92.38
2022-11-28T02:13:39.657Z,92.39
2022-11-28T02:17:48.270Z,93.45
2022-11-28T02:21:54.338Z,93.42
2022-11-28T02:26:11.886Z,94.55
2022-11-28T02:30:19.146Z,93.56
2022-11-28T02:34:28.098Z,92.96
2022-11-28T02:38:35.061Z,94.14
2022-11-28T02:42:39.916Z,94.46
2022-11-28T02:46:43.891Z,94.94
2022-11-28T02:50:48.579Z,93.67
2022-11-28T02:54:50.905Z,93.57
2022-11-28T02:58:52.359Z,93.69
2022-11-28T03:03:00.523Z,93.92
2022-11-28T03:07:09.088Z,93.66
2022-11-28T03:11:14.236Z,94.03
2022-11-28T03:15:18.707Z,94.75
2022-11-28T03:19:22.048Z,94.92
2022-11-28T03:23:29.844Z,94.83
2022-11-28T03:27:33.448Z,95.15
2022-11-28T03:31:36.820Z,94.90
2022-11-28T03:35:41.347Z,94.81
2022-11-28T03:39:45.830Z,94.91
2022-11-28T03:43:50.103Z,93.35
2022-11-28T03:47:54.909Z,93.50
2022-11-28T03:51:58.736Z,94.12
2022-11-28T03:56:04.561Z,94.51
2022-11-28T04:00:07.809Z,94.91
2022-11-28T04:04:14.206Z,94.93
2022-11-28T04:08:17.558Z,94.60
2022-11-28T04:12:22.022Z,93.34
2022-11-28T04:16:25.488Z,92.83
2022-11-28T04:20:30.268Z,93.71
2022-11-28T04:24:34.612Z,93.58
2022-11-28T04:28:37.727Z,92.92
2022-11-28T04:32:41.989Z,92.67
2022-11-28T04:36:44.429Z,92.94
2022-11-28T04:40:49.275Z,93.02
2022-11-28T04:44:55.714Z,93.98
2022-11-28T04:48:57.540Z,94.30
2022-11-28T04:53:03.122Z,94.52
2022-11-28T04:57:11.048Z,95.21
2022-11-28T05:01:16.767Z,94.41
2022-11-28T05:05:19.061Z,93.68
2022-11-28T05:09:20.447Z,92.38
2022-11-28T05:13:21.847Z,92.71
2022-11-28T05:17:24.602Z,93.52
2022-11-28T05:21:25.982Z,93.49
2022-11-28T05:25:27.340Z,93.26
2022-11-28T05:29:28.795Z,93.02
2022-11-28T05:33:32.135Z,92.51
2022-11-28T05:37:33.953Z,92.77
2022-11-28T05:41:35.346Z,92.73
2022-11-28T05:45:39.623Z,90.79
2022-11-28T05:49:42.717Z,91.66
2022-11-28T05:53:44.340Z,91.82
2022-11-28T05:57:45.730Z,91.52
2022-11-28T06:01:47.174Z,92.44
2022-11-28T06:05:49.945Z,91.40
2022-11-28T06:09:51.332Z,90.92
2022-11-28T06:13:52.727Z,92.87
2022-11-28T06:17:54.099Z,91.94
2022-11-28T06:21:56.833Z,92.84
2022-11-28T06:25:58.272Z,91.14
2022-11-28T06:29:59.645Z,91.53
2022-11-28T06:34:01.021Z,92.13
2022-11-28T06:38:03.770Z,91.78
2022-11-28T06:42:05.340Z,92.74
2022-11-28T06:46:14.598Z,92.35
2022-11-28T06:50:17.593Z,92.51
2022-11-28T06:54:20.340Z,91.76
2022-11-28T06:58:21.736Z,90.91
2022-11-28T07:02:23.088Z,92.99
2022-11-28T07:06:25.185Z,93.30
2022-11-28T07:10:28.793Z,92.26
2022-11-28T07:14:32.390Z,90.45
2022-11-28T07:18:34.101Z,90.95
2022-11-28T07:22:35.469Z,90.50
2022-11-28T07:26:38.244Z,90.96
2022-11-28T07:30:39.664Z,91.68
2022-11-28T07:34:41.053Z,89.64
2022-11-28T07:38:42.562Z,89.71
2022-11-28T07:42:45.324Z,89.75
2022-11-28T07:46:46.844Z,89.47
2022-11-28T07:50:48.318Z,89.63
2022-11-28T07:54:49.790Z,88.38
2022-11-28T07:58:52.668Z,88.87
2022-11-28T08:02:54.040Z,88.66
2022-11-28T08:06:55.459Z,88.39
2022-11-28T08:10:57.658Z,86.75
2022-11-28T08:15:00.398Z,86.01
2022-11-28T08:19:01.861Z,85.59
2022-11-28T08:23:03.232Z,84.76
2022-11-28T08:27:04.600Z,85.15
2022-11-28T08:31:10.157Z,85.38
2022-11-28T08:35:11.573Z,84.77
2022-11-28T08:39:28.298Z,85.02
2022-11-28T08:43:29.826Z,84.80
2022-11-28T08:47:32.623Z,83.63
2022-11-28T08:51:34.029Z,84.42
2022-11-28T08:55:40.509Z,83.24
2022-11-28T08:59:43.331Z,82.17
2022-11-28T09:03:46.621Z,82.44
2022-11-28T09:07:48.129Z,81.56
2022-11-28T09:11:49.587Z,83.38
2022-11-28T09:15:52.689Z,81.89
2022-11-28T09:19:56.724Z,81.06
2022-11-28T09:23:58.131Z,81.95
2022-11-28T09:27:59.518Z,82.14
2022-11-28T09:32:00.919Z,80.60
2022-11-28T09:36:05.947Z,81.05
2022-11-28T09:40:14.428Z,80.50
2022-11-28T09:44:18.361Z,79.19
2022-11-28T09:48:26.350Z,80.60
2022-11-28T09:52:32.617Z,81.15
2022-11-28T09:56:34.119Z,82.30
2022-11-28T10:00:38.042Z,82.89
2022-11-28T10:04:41.358Z,81.86
2022-11-28T10:08:53.457Z,81.16
2022-11-28T10:12:58.338Z,79.90
2022-11-28T10:17:03.774Z,79.38
2022-11-28T10:21:10.171Z,78.27
2022-11-28T10:25:16.637Z,79.04
2022-11-28T10:29:22.169Z,77.55
2022-11-28T10:33:25.539Z,79.24
2022-11-28T10:37:27.506Z,76.07
2022-11-28T10:41:33.212Z,76.03
2022-11-28T10:45:43.516Z,76.03
2022-11-28T10:49:50.232Z,74.78
2022-11-28T10:53:56.109Z,75.10
2022-11-28T10:58:03.473Z,75.28
2022-11-28T11:02:26.666Z,76.33
2022-11-28T11:06:40.819Z,74.31
2022-11-28T11:10:44.872Z,74.38
2022-11-28T11:14:47.625Z,74.70
2022-11-28T11:18:51.350Z,73.89
2022-11-28T11:22:54.138Z,73.77
2022-11-28T11:27:02.510Z,74.42
2022-11-28T11:31:06.683Z,73.45
2022-11-28T11:35:16.138Z,72.39
2022-11-28T11:39:21.570Z,71.63
2022-11-28T11:43:24.355Z,72.73
2022-11-28T11:47:41.259Z,72.42
2022-11-28T11:51:42.620Z,71.33
2022-11-28T11:55:47.121Z,72.54
2022-11-28T11:59:50.443Z,71.96
2022-11-28T12:03:56.647Z,71.29
2022-11-28T12:07:59.783Z,71.36
2022-11-28T12:12:05.035Z,71.72
2022-11-28T12:16:10.851Z,71.04
2022-11-28T12:20:33.145Z,70.90
2022-11-28T12:24:44.125Z,71.35
2022-11-28T12:28:51.199Z,73.00
2022-11-28T12:32:57.481Z,73.57
2022-11-28T12:37:03.805Z,73.45
2022-11-28T12:41:21.476Z,74.75
2022-11-28T12:45:43.960Z,74.60
2022-11-28T12:49:50.561Z,75.96
2022-11-28T12:54:04.831Z,76.37
2022-11-28T12:58:13.250Z,76.80
2022-11-28T13:02:27.561Z,76.27
2022-11-28T13:06:35.683Z,76.19
2022-11-28T13:10:42.143Z,77.11
2022-11-28T13:14:48.357Z,76.71
2022-11-28T13:18:54.329Z,77.36
2022-11-28T13:23:04.927Z,76.91
2022-11-28T13:27:09.258Z,78.14
2022-11-28T13:31:22.811Z,77.75
2022-11-28T13:35:24.923Z,77.97
2022-11-28T13:39:30.346Z,76.46
2022-11-28T13:43:39.057Z,77.00
2022-11-28T13:47:41.756Z,77.02
2022-11-28T13:51:43.145Z,75.84
2022-11-28T13:55:45.229Z,76.36
2022-11-28T13:59:47.754Z,76.49
2022-11-28T14:03:52.307Z,77.73
2022-11-28T14:07:56.039Z,77.44
2022-11-28T14:12:02.360Z,78.01
2022-11-28T14:16:11.421Z,77.12
2022-11-28T14:20:19.464Z,79.32
2022-11-28T14:24:27.457Z,79.60
2022-11-28T14:28:30.388Z,79.05
2022-11-28T14:32:33.721Z,79.17
2022-11-28T14:36:37.195Z,79.90
2022-11-28T14:41:05.858Z,79.99
2022-11-28T14:45:25.810Z,81.61
2022-11-28T14:49:27.215Z,80.26
2022-11-28T14:53:47.470Z,80.49
2022-11-28T14:57:54.043Z,81.83
2022-11-28T15:01:58.481Z,81.65
2022-11-28T15:06:01.865Z,83.47
2022-11-28T15:10:08.638Z,83.62
2022-11-28T15:14:14.897Z,82.87
2022-11-28T15:18:17.589Z,83.60
2022-11-28T15:22:36.813Z,84.38
2022-11-28T15:26:39.530Z,84.02
2022-11-28T15:30:44.386Z,84.14
2022-11-28T15:34:50.959Z,84.87
2022-11-28T15:38:53.316Z,86.12
2022-11-28T15:42:56.088Z,87.06
2022-11-28T15:46:57.851Z,87.38
2022-11-28T15:50:59.273Z,87.32
2022-11-28T15:55:00.678Z,87.75
2022-11-28T15:59:03.422Z,87.48
2022-11-28T16:03:05.507Z,86.78
2022-11-28T16:07:10.141Z,87.17
2022-11-28T16:11:15.455Z,87.21
2022-11-28T16:15:19.174Z,87.54
2022-11-28T16:19:23.374Z,87.50
2022-11-28T16:23:27.389Z,87.28
2022-11-28T16:27:32.865Z,86.50
2022-11-28T16:31:36.024Z,87.31
2022-11-28T16:35:38.288Z,87.66
2022-11-28T16:39:39.882Z,87.15
2022-11-28T16:43:41.325Z,87.29
2022-11-28T16:47:44.927Z,87.27
2022-11-28T16:51:46.296Z,86.77
2022-11-28T16:55:47.649Z,87.14
2022-11-28T16:59:49.596Z,87.31
2022-11-28T17:03:52.745Z,87.40
2022-11-28T17:07:54.299Z,87.50
2022-11-28T17:11:56.842Z,87.26
2022-11-28T17:15:58.251Z,87.28
2022-11-28T17:20:01.052Z,87.19
2022-11-28T17:24:02.477Z,86.81
2022-11-28T17:28:03.937Z,87.15
2022-11-28T17:32:05.785Z,87.08
2022-11-28T17:36:09.992Z,87.20
2022-11-28T17:40:11.510Z,87.07
2022-11-28T17:44:16.898Z,87.97
2022-11-28T17:48:18.698Z,88.12
2022-11-28T17:52:21.423Z,88.90
2022-11-28T17:56:22.764Z,88.50
2022-11-28T18:00:24.315Z,88.75
2022-11-28T18:04:25.701Z,89.01
2022-11-28T18:08:28.426Z,89.10
2022-11-28T18:12:29.809Z,88.12
2022-11-28T18:16:31.198Z,88.18
2022-11-28T18:20:32.805Z,87.87
2022-11-28T18:24:35.550Z,87.89
2022-11-28T18:28:37.241Z,87.80
2022-11-28T18:32:38.648Z,87.80
2022-11-28T18:36:40.028Z,87.85
2022-11-28T18:40:42.748Z,88.11
2022-11-28T18:44:44.186Z,88.04
2022-11-28T18:48:46.531Z,88.41
2022-11-28T18:52:48.102Z,88.19
2022-11-28T18:56:50.924Z,87.23
2022-11-28T19:00:54.138Z,86.69
2022-11-28T19:04:55.574Z,87.56
2022-11-28T19:08:57.687Z,85.97
2022-11-28T19:13:00.415Z,85.88
2022-11-28T19:17:01.845Z,86.15
2022-11-28T19:21:04.806Z,86.70
2022-11-28T19:25:06.913Z,87.42
2022-11-28T19:29:09.740Z,87.51
2022-11-28T19:33:11.110Z,87.73
2022-11-28T19:37:12.462Z,87.66
2022-11-28T19:41:15.008Z,87.94
2022-11-28T19:45:17.860Z,87.65
2022-11-28T19:49:20.396Z,88.33
2022-11-28T19:53:21.880Z,88.21
2022-11-28T19:57:23.229Z,88.59
2022-11-28T20:01:26.040Z,88.73
2022-11-28T20:05:27.441Z,89.00
2022-11-28T20:09:28.927Z,89.05
2022-11-28T20:13:30.306Z,89.54
2022-11-28T20:17:33.020Z,89.69
2022-11-28T20:21:34.635Z,89.01
2022-11-28T20:25:35.996Z,89.39
2022-11-28T20:29:37.364Z,90.35
2022-11-28T20:33:40.097Z,89.86
2022-11-28T20:37:41.435Z,90.35
2022-11-28T20:41:42.996Z,90.08
2022-11-28T20:45:44.429Z,89.95
2022-11-28T20:49:47.190Z,90.19
2022-11-28T20:53:48.760Z,90.47
2022-11-28T20:57:50.106Z,89.47
2022-11-28T21:01:51.521Z,88.63
2022-11-28T21:05:59.517Z,89.81
2022-11-28T21:10:02.314Z,89.75
2022-11-28T21:14:04.085Z,90.05
2022-11-28T21:18:05.559Z,90.48
2022-11-28T21:22:08.287Z,90.43
2022-11-28T21:26:11.044Z,91.36
2022-11-28T21:30:12.524Z,90.68
2022-11-28T21:34:14.704Z,90.54
2022-11-28T21:38:17.548Z,90.72
2022-11-28T21:42:20.792Z,90.98
2022-11-28T21:46:22.577Z,89.94
2022-11-28T21:50:23.940Z,89.77
2022-11-28T21:54:26.682Z,89.17
2022-11-28T21:58:28.490Z,88.69
2022-11-28T22:02:30.928Z,88.19
2022-11-28T22:06:32.677Z,88.70
2022-11-28T22:10:36.741Z,89.34
2022-11-28T22:14:38.131Z,89.50
2022-11-28T22:18:39.712Z,88.53
2022-11-28T22:22:41.108Z,88.76
2022-11-28T22:26:43.875Z,88.62
2022-11-28T22:30:45.294Z,88.31
2022-11-28T22:34:46.883Z,88.86
2022-11-28T22:38:49.288Z,89.96
2022-11-28T22:42:55.125Z,90.22
2022-11-28T22:46:56.504Z,89.40
2022-11-28T22:50:58.174Z,90.47
2022-11-28T22:54:59.557Z,90.67
2022-11-28T22:59:02.278Z,90.72
2022-11-28T23:03:03.798Z,90.57
2022-11-28T23:07:05.278Z,91.01
2022-11-28T23:11:06.789Z,90.51
2022-11-28T23:15:10.134Z,89.33
2022-11-28T23:19:12.266Z,89.41
2022-11-28T23:23:13.655Z,90.02
2022-11-28T23:27:15.011Z,90.98
2022-11-28T23:31:18.440Z,90.90
2022-11-28T23:35:19.854Z,91.01
2022-11-28T23:39:22.267Z,91.70
2022-11-28T23:43:23.623Z,92.55
2022-11-28T23:47:26.374Z,92.47
2022-11-28T23:51:27.813Z,92.04
2022-11-28T23:55:29.196Z,91.89
2022-11-28T23:59:30.728Z,92.55
